Terminal Aerodrome Forecast
Issued by NWS Sterling, VA

Current Version | Previous Version | Text Only | Print | Product List | Glossary Off
Versions: 1 2 3 4 5 6 7 8 9 10 11 12 13 14 15 16 17 18 19 20 21 22 23 24 25 26 27 28 29

966
FTUS41 KLWX 032335
TAFIAD
TAF
KIAD 032335Z 0400/0506 26008KT P6SM BKN008 OVC090
     FM040200 20007KT 3SM BR OVC008
     FM040400 23004KT 2SM BR OVC008
     FM040600 30004KT 3SM BR OVC010
     FM040800 32008KT 5SM BR BKN250
     FM041000 33008KT P6SM BKN250=

USA.gov is the U.S. government's official web portal to all federal, state and local government web resources and services.